sensor_id;sensor_type;location;lat;lon;timestamp;pressure;altitude;pressure_sealevel;temperature;humidity
7168;BME280;3625;51.762;14.320;2023-04-30T00:00:58;101032.00;;;10.67;100.00
7168;BME280;3625;51.762;14.320;2023-04-30T00:03:27;101026.66;;;10.70;100.00
7168;BME280;3625;51.762;14.320;2023-04-30T00:05:56;101036.50;;;10.62;100.00
7168;BME280;3625;51.762;14.320;2023-04-30T00:08:25;101036.69;;;10.45;100.00
7168;BME280;3625;51.762;14.320;2023-04-30T00:10:53;101028.03;;;10.32;100.00
7168;BME280;3625;51.762;14.320;2023-04-30T00:13:22;101038.69;;;10.26;100.00
7168;BME280;3625;51.762;14.320;2023-04-30T00:15:51;101033.50;;;10.12;100.00
7168;BME280;3625;51.762;14.320;2023-04-30T00:18:21;101025.81;;;9.93;100.00
7168;BME280;3625;51.762;14.320;2023-04-30T00:20:50;101035.69;;;9.72;100.00
7168;BME280;3625;51.762;14.320;2023-04-30T00:23:20;101030.56;;;9.56;100.00
7168;BME280;3625;51.762;14.320;2023-04-30T00:25:48;101033.28;;;9.46;100.00
7168;BME280;3625;51.762;14.320;2023-04-30T00:28:17;101027.19;;;9.37;100.00
7168;BME280;3625;51.762;14.320;2023-04-30T00:30:46;101032.59;;;9.25;100.00
7168;BME280;3625;51.762;14.320;2023-04-30T00:33:15;101037.91;;;9.17;100.00
7168;BME280;3625;51.762;14.320;2023-04-30T00:35:45;101035.31;;;9.16;100.00
7168;BME280;3625;51.762;14.320;2023-04-30T00:38:14;101051.16;;;9.09;100.00
7168;BME280;3625;51.762;14.320;2023-04-30T00:40:43;101043.28;;;9.03;100.00
7168;BME280;3625;51.762;14.320;2023-04-30T00:43:12;101043.34;;;8.97;100.00
7168;BME280;3625;51.762;14.320;2023-04-30T00:45:41;101051.28;;;8.93;100.00
7168;BME280;3625;51.762;14.320;2023-04-30T00:48:10;101050.47;;;8.80;100.00
7168;BME280;3625;51.762;14.320;2023-04-30T00:50:39;101055.81;;;8.66;100.00
7168;BME280;3625;51.762;14.320;2023-04-30T00:53:10;101063.78;;;8.56;100.00
7168;BME280;3625;51.762;14.320;2023-04-30T00:55:40;101065.59;;;8.45;100.00
7168;BME280;3625;51.762;14.320;2023-04-30T00:58:09;101062.06;;;8.47;100.00
7168;BME280;3625;51.762;14.320;2023-04-30T01:00:39;101055.03;;;8.45;100.00
7168;BME280;3625;51.762;14.320;2023-04-30T01:03:13;101058.59;;;8.31;100.00
7168;BME280;3625;51.762;14.320;2023-04-30T01:05:42;101063.00;;;8.20;100.00
7168;BME280;3625;51.762;14.320;2023-04-30T01:08:13;101065.63;;;8.16;100.00
7168;BME280;3625;51.762;14.320;2023-04-30T01:10:47;101070.03;;;8.14;100.00
7168;BME280;3625;51.762;14.320;2023-04-30T01:13:25;101077.09;;;8.09;100.00
7168;BME280;3625;51.762;14.320;2023-04-30T01:15:59;101076.22;;;7.97;100.00
7168;BME280;3625;51.762;14.320;2023-04-30T01:18:34;101085.03;;;7.95;100.00
7168;BME280;3625;51.762;14.320;2023-04-30T01:21:07;101097.28;;;7.96;100.00
7168;BME280;3625;51.762;14.320;2023-04-30T01:24:01;101097.31;;;7.91;100.00
7168;BME280;3625;51.762;14.320;2023-04-30T01:26:52;101096.44;;;7.83;100.00
7168;BME280;3625;51.762;14.320;2023-04-30T01:29:24;101102.59;;;7.75;100.00
7168;BME280;3625;51.762;14.320;2023-04-30T01:31:54;101106.09;;;7.63;100.00
7168;BME280;3625;51.762;14.320;2023-04-30T01:34:23;101101.72;;;7.54;100.00
7168;BME280;3625;51.762;14.320;2023-04-30T01:37:00;101111.34;;;7.52;100.00
7168;BME280;3625;51.762;14.320;2023-04-30T01:40:05;101106.13;;;7.58;100.00
7168;BME280;3625;51.762;14.320;2023-04-30T01:42:44;101120.16;;;7.56;100.00
7168;BME280;3625;51.762;14.320;2023-04-30T01:45:27;101119.25;;;7.46;100.00
7168;BME280;3625;51.762;14.320;2023-04-30T01:48:12;101118.34;;;7.37;100.00
7168;BME280;3625;51.762;14.320;2023-04-30T01:50:48;101106.06;;;7.19;100.00
7168;BME280;3625;51.762;14.320;2023-04-30T01:53:22;101124.47;;;7.13;100.00
7168;BME280;3625;51.762;14.320;2023-04-30T01:55:56;101123.53;;;7.02;100.00
7168;BME280;3625;51.762;14.320;2023-04-30T01:58:27;101126.16;;;6.94;100.00
7168;BME280;3625;51.762;14.320;2023-04-30T02:00:59;101130.50;;;6.85;100.00
7168;BME280;3625;51.762;14.320;2023-04-30T02:03:28;101128.75;;;6.83;100.00
7168;BME280;3625;51.762;14.320;2023-04-30T02:05:57;101131.41;;;6.87;100.00
7168;BME280;3625;51.762;14.320;2023-04-30T02:08:26;101141.91;;;6.87;100.00
7168;BME280;3625;51.762;14.320;2023-04-30T02:10:55;101150.69;;;6.82;100.00
7168;BME280;3625;51.762;14.320;2023-04-30T02:13:24;101141.91;;;6.87;100.00
7168;BME280;3625;51.762;14.320;2023-04-30T02:15:53;101148.06;;;6.87;100.00
7168;BME280;3625;51.762;14.320;2023-04-30T02:18:23;101154.19;;;6.85;100.00
7168;BME280;3625;51.762;14.320;2023-04-30T02:20:52;101152.41;;;6.80;100.00
7168;BME280;3625;51.762;14.320;2023-04-30T02:23:21;101162.03;;;6.72;100.00
7168;BME280;3625;51.762;14.320;2023-04-30T02:25:50;101164.63;;;6.68;100.00
7168;BME280;3625;51.762;14.320;2023-04-30T02:28:18;101163.75;;;6.67;100.00
7168;BME280;3625;51.762;14.320;2023-04-30T02:30:47;101162.84;;;6.67;100.00
7168;BME280;3625;51.762;14.320;2023-04-30T02:33:16;101161.09;;;6.63;100.00
7168;BME280;3625;51.762;14.320;2023-04-30T02:35:46;101170.72;;;6.59;100.00
7168;BME280;3625;51.762;14.320;2023-04-30T02:38:15;101172.41;;;6.51;100.00
7168;BME280;3625;51.762;14.320;2023-04-30T02:40:44;101165.38;;;6.44;100.00
7168;BME280;3625;51.762;14.320;2023-04-30T02:43:13;101165.31;;;6.35;100.00
7168;BME280;3625;51.762;14.320;2023-04-30T02:45:41;101172.25;;;6.24;100.00
7168;BME280;3625;51.762;14.320;2023-04-30T02:48:11;101170.47;;;6.18;100.00
7168;BME280;3625;51.762;14.320;2023-04-30T02:50:39;101172.13;;;6.09;100.00
7168;BME280;3625;51.762;14.320;2023-04-30T02:53:12;101175.63;;;6.04;100.00
7168;BME280;3625;51.762;14.320;2023-04-30T02:55:41;101180.81;;;5.95;100.00
7168;BME280;3625;51.762;14.320;2023-04-30T02:58:10;101172.78;;;5.85;100.00
7168;BME280;3625;51.762;14.320;2023-04-30T03:00:39;101180.63;;;5.82;100.00
7168;BME280;3625;51.762;14.320;2023-04-30T03:03:08;101181.56;;;5.87;100.00
7168;BME280;3625;51.762;14.320;2023-04-30T03:05:37;101192.13;;;5.91;100.00
7168;BME280;3625;51.762;14.320;2023-04-30T03:08:06;101197.38;;;5.90;100.00
7168;BME280;3625;51.762;14.320;2023-04-30T03:10:37;101203.44;;;5.84;100.00
7168;BME280;3625;51.762;14.320;2023-04-30T03:13:07;101195.66;;;5.92;100.00
7168;BME280;3625;51.762;14.320;2023-04-30T03:15:36;101200.91;;;5.93;100.00
7168;BME280;3625;51.762;14.320;2023-04-30T03:18:05;101200.94;;;5.96;100.00
7168;BME280;3625;51.762;14.320;2023-04-30T03:20:34;101208.88;;;6.04;100.00
7168;BME280;3625;51.762;14.320;2023-04-30T03:23:03;101211.50;;;6.05;100.00
7168;BME280;3625;51.762;14.320;2023-04-30T03:25:31;101208.84;;;5.99;100.00
7168;BME280;3625;51.762;14.320;2023-04-30T03:28:03;101219.28;;;5.92;100.00
7168;BME280;3625;51.762;14.320;2023-04-30T03:30:35;101224.53;;;5.92;100.00
7168;BME280;3625;51.762;14.320;2023-04-30T03:33:06;101221.88;;;5.90;100.00
7168;BME280;3625;51.762;14.320;2023-04-30T03:35:35;101224.50;;;5.89;100.00
7168;BME280;3625;51.762;14.320;2023-04-30T03:38:04;101226.28;;;5.91;100.00
7168;BME280;3625;51.762;14.320;2023-04-30T03:40:33;101232.47;;;5.96;100.00
7168;BME280;3625;51.762;14.320;2023-04-30T03:43:04;101244.72;;;5.99;100.00
7168;BME280;3625;51.762;14.320;2023-04-30T03:45:33;101235.13;;;6.01;100.00
7168;BME280;3625;51.762;14.320;2023-04-30T03:48:02;101241.34;;;6.11;100.00
7168;BME280;3625;51.762;14.320;2023-04-30T03:50:31;101239.59;;;6.13;100.00
7168;BME280;3625;51.762;14.320;2023-04-30T03:53:00;101236.13;;;6.14;100.00
7168;BME280;3625;51.762;14.320;2023-04-30T03:55:29;101237.88;;;6.13;100.00
7168;BME280;3625;51.762;14.320;2023-04-30T03:57:58;101238.81;;;6.24;100.00
7168;BME280;3625;51.762;14.320;2023-04-30T04:00:28;101247.66;;;6.31;100.00
7168;BME280;3625;51.762;14.320;2023-04-30T04:02:58;101257.25;;;6.32;100.00
7168;BME280;3625;51.762;14.320;2023-04-30T04:05:27;101251.97;;;6.27;100.00
7168;BME280;3625;51.762;14.320;2023-04-30T04:07:56;101251.97;;;6.26;100.00
7168;BME280;3625;51.762;14.320;2023-04-30T04:10:25;101251.94;;;6.24;100.00
7168;BME280;3625;51.762;14.320;2023-04-30T04:12:54;101256.38;;;6.28;100.00
7168;BME280;3625;51.762;14.320;2023-04-30T04:15:23;101260.72;;;6.25;100.00
7168;BME280;3625;51.762;14.320;2023-04-30T04:17:57;101189.38;;;5.79;100.00
7168;BME280;3625;51.762;14.320;2023-04-30T04:20:26;101264.19;;;6.24;100.00
7168;BME280;3625;51.762;14.320;2023-04-30T04:22:56;101265.97;;;6.26;100.00
7168;BME280;3625;51.762;14.320;2023-04-30T04:25:25;101282.66;;;6.30;100.00
7168;BME280;3625;51.762;14.320;2023-04-30T04:27:55;101287.09;;;6.35;100.00
7168;BME280;3625;51.762;14.320;2023-04-30T04:30:24;101292.34;;;6.40;100.00
7168;BME280;3625;51.762;14.320;2023-04-30T04:32:53;101291.56;;;6.46;100.00
7168;BME280;3625;51.762;14.320;2023-04-30T04:35:23;101298.59;;;6.51;100.00
7168;BME280;3625;51.762;14.320;2023-04-30T04:37:52;101302.13;;;6.55;100.00
7168;BME280;3625;51.762;14.320;2023-04-30T04:40:21;101296.91;;;6.56;100.00
7168;BME280;3625;51.762;14.320;2023-04-30T04:42:50;101303.91;;;6.59;100.00
7168;BME280;3625;51.762;14.320;2023-04-30T04:45:19;101309.19;;;6.57;100.00
7168;BME280;3625;51.762;14.320;2023-04-30T04:47:49;101312.66;;;6.56;100.00
7168;BME280;3625;51.762;14.320;2023-04-30T04:50:18;101321.41;;;6.58;100.00
7168;BME280;3625;51.762;14.320;2023-04-30T04:52:49;101322.38;;;6.65;100.00
7168;BME280;3625;51.762;14.320;2023-04-30T04:55:18;101279.22;;;6.37;100.00
7168;BME280;3625;51.762;14.320;2023-04-30T04:57:46;101328.56;;;6.76;100.00
7168;BME280;3625;51.762;14.320;2023-04-30T05:00:16;101333.88;;;6.83;100.00
7168;BME280;3625;51.762;14.320;2023-04-30T05:02:45;101331.31;;;6.93;100.00
7168;BME280;3625;51.762;14.320;2023-04-30T05:05:14;101328.78;;;7.05;100.00
7168;BME280;3625;51.762;14.320;2023-04-30T05:07:43;101329.72;;;7.16;100.00
7168;BME280;3625;51.762;14.320;2023-04-30T05:10:13;101330.66;;;7.26;100.00
7168;BME280;3625;51.762;14.320;2023-04-30T05:12:42;101329.84;;;7.39;100.00
7168;BME280;3625;51.762;14.320;2023-04-30T05:15:11;101344.81;;;7.50;100.00
7168;BME280;3625;51.762;14.320;2023-04-30T05:17:40;101348.34;;;7.55;100.00
7168;BME280;3625;51.762;14.320;2023-04-30T05:20:10;101361.53;;;7.63;100.00
7168;BME280;3625;51.762;14.320;2023-04-30T05:22:41;101363.31;;;7.64;100.00
7168;BME280;3625;51.762;14.320;2023-04-30T05:25:10;101372.09;;;7.72;100.00
7168;BME280;3625;51.762;14.320;2023-04-30T05:27:43;101372.13;;;7.74;100.00
7168;BME280;3625;51.762;14.320;2023-04-30T05:30:12;101374.81;;;7.86;100.00
7168;BME280;3625;51.762;14.320;2023-04-30T05:32:42;101387.13;;;7.87;99.52
7168;BME280;3625;51.762;14.320;2023-04-30T05:35:17;101384.47;;;7.91;97.12
7168;BME280;3625;51.762;14.320;2023-04-30T05:37:46;101392.38;;;7.85;97.55
7168;BME280;3625;51.762;14.320;2023-04-30T05:40:15;101385.34;;;7.89;97.07
7168;BME280;3625;51.762;14.320;2023-04-30T05:42:46;101384.47;;;7.84;96.84
7168;BME280;3625;51.762;14.320;2023-04-30T05:45:14;101387.97;;;7.78;97.48
7168;BME280;3625;51.762;14.320;2023-04-30T05:47:44;101395.03;;;7.94;96.07
7168;BME280;3625;51.762;14.320;2023-04-30T05:50:13;101400.31;;;7.99;93.17
7168;BME280;3625;51.762;14.320;2023-04-30T05:52:42;101397.66;;;7.93;93.29
7168;BME280;3625;51.762;14.320;2023-04-30T05:55:12;101394.13;;;7.91;94.26
7168;BME280;3625;51.762;14.320;2023-04-30T05:57:43;101388.84;;;7.85;93.63
7168;BME280;3625;51.762;14.320;2023-04-30T06:00:14;101395.00;;;7.90;94.18
7168;BME280;3625;51.762;14.320;2023-04-30T06:02:44;101397.72;;;8.02;93.11
7168;BME280;3625;51.762;14.320;2023-04-30T06:05:16;101394.19;;;8.00;92.64
7168;BME280;3625;51.762;14.320;2023-04-30T06:07:44;101400.34;;;8.07;91.28
7168;BME280;3625;51.762;14.320;2023-04-30T06:10:14;101396.84;;;8.08;92.12
7168;BME280;3625;51.762;14.320;2023-04-30T06:12:42;101399.47;;;8.09;92.02
7168;BME280;3625;51.762;14.320;2023-04-30T06:15:13;101400.34;;;8.10;93.54
7168;BME280;3625;51.762;14.320;2023-04-30T06:17:44;101405.63;;;8.16;93.18
7168;BME280;3625;51.762;14.320;2023-04-30T06:20:12;101398.63;;;8.12;92.38
7168;BME280;3625;51.762;14.320;2023-04-30T06:22:44;101398.59;;;8.10;93.42
7168;BME280;3625;51.762;14.320;2023-04-30T06:25:13;101400.34;;;8.07;92.94
7168;BME280;3625;51.762;14.320;2023-04-30T06:27:42;101402.13;;;8.14;94.51
7168;BME280;3625;51.762;14.320;2023-04-30T06:30:13;101396.88;;;8.26;94.18
7168;BME280;3625;51.762;14.320;2023-04-30T06:32:45;101410.13;;;8.35;93.57
7168;BME280;3625;51.762;14.320;2023-04-30T06:35:16;101406.59;;;8.36;93.47
7168;BME280;3625;51.762;14.320;2023-04-30T06:37:45;101404.84;;;8.40;92.98
7168;BME280;3625;51.762;14.320;2023-04-30T06:40:14;101408.38;;;8.37;92.79
7168;BME280;3625;51.762;14.320;2023-04-30T06:42:43;101405.75;;;8.43;91.93
7168;BME280;3625;51.762;14.320;2023-04-30T06:45:15;101404.84;;;8.35;92.49
7168;BME280;3625;51.762;14.320;2023-04-30T06:47:46;101411.88;;;8.41;93.17
7168;BME280;3625;51.762;14.320;2023-04-30T06:50:17;101413.66;;;8.43;93.18
7168;BME280;3625;51.762;14.320;2023-04-30T06:52:47;101411.91;;;8.50;92.00
7168;BME280;3625;51.762;14.320;2023-04-30T06:55:16;101415.41;;;8.52;92.57
7168;BME280;3625;51.762;14.320;2023-04-30T06:57:47;101411.03;;;8.58;92.54
7168;BME280;3625;51.762;14.320;2023-04-30T07:00:17;101420.72;;;8.72;90.94
7168;BME280;3625;51.762;14.320;2023-04-30T07:02:46;101423.38;;;8.72;90.44
7168;BME280;3625;51.762;14.320;2023-04-30T07:05:18;101419.84;;;8.73;91.19
7168;BME280;3625;51.762;14.320;2023-04-30T07:07:47;101418.97;;;8.77;89.65
7168;BME280;3625;51.762;14.320;2023-04-30T07:10:16;101420.72;;;8.82;90.29
7168;BME280;3625;51.762;14.320;2023-04-30T07:12:45;101417.22;;;8.85;90.33
7168;BME280;3625;51.762;14.320;2023-04-30T07:15:16;101428.63;;;8.94;90.79
7168;BME280;3625;51.762;14.320;2023-04-30T07:17:45;101426.88;;;9.04;88.95
7168;BME280;3625;51.762;14.320;2023-04-30T07:20:13;101432.16;;;9.02;89.21
7168;BME280;3625;51.762;14.320;2023-04-30T07:22:43;101434.81;;;9.05;88.19
7168;BME280;3625;51.762;14.320;2023-04-30T07:25:12;101433.03;;;9.11;89.24
7168;BME280;3625;51.762;14.320;2023-04-30T07:27:41;101423.34;;;9.20;89.15
7168;BME280;3625;51.762;14.320;2023-04-30T07:30:11;101422.47;;;9.29;88.69
7168;BME280;3625;51.762;14.320;2023-04-30T07:32:41;101422.47;;;9.32;88.05
7168;BME280;3625;51.762;14.320;2023-04-30T07:35:10;101421.56;;;9.37;86.98
7168;BME280;3625;51.762;14.320;2023-04-30T07:37:40;101424.19;;;9.48;87.63
7168;BME280;3625;51.762;14.320;2023-04-30T07:40:11;101418.88;;;9.57;86.70
7168;BME280;3625;51.762;14.320;2023-04-30T07:42:48;101422.38;;;9.68;86.85
7168;BME280;3625;51.762;14.320;2023-04-30T07:45:17;101427.59;;;9.82;82.02
7168;BME280;3625;51.762;14.320;2023-04-30T07:47:47;101432.03;;;9.77;79.66
7168;BME280;3625;51.762;14.320;2023-04-30T07:50:16;101437.31;;;9.75;78.40
7168;BME280;3625;51.762;14.320;2023-04-30T07:52:47;101436.44;;;9.76;78.79
7168;BME280;3625;51.762;14.320;2023-04-30T07:55:16;101431.13;;;9.78;80.73
7168;BME280;3625;51.762;14.320;2023-04-30T07:57:45;101431.03;;;10.04;82.01
7168;BME280;3625;51.762;14.320;2023-04-30T08:00:14;101441.56;;;10.22;82.21
7168;BME280;3625;51.762;14.320;2023-04-30T08:02:44;101447.72;;;10.21;79.15
7168;BME280;3625;51.762;14.320;2023-04-30T08:05:16;101440.59;;;10.40;79.52
7168;BME280;3625;51.762;14.320;2023-04-30T08:07:45;101437.81;;;10.59;79.31
7168;BME280;3625;51.762;14.320;2023-04-30T08:10:14;101440.28;;;10.87;79.47
7168;BME280;3625;51.762;14.320;2023-04-30T08:12:43;101448.03;;;11.08;73.45
7168;BME280;3625;51.762;14.320;2023-04-30T08:15:11;101450.38;;;11.42;72.73
7168;BME280;3625;51.762;14.320;2023-04-30T08:17:40;101453.56;;;11.79;69.82
7168;BME280;3625;51.762;14.320;2023-04-30T08:20:10;101456.00;;;11.98;65.14
7168;BME280;3625;51.762;14.320;2023-04-30T08:22:40;101462.97;;;12.05;63.97
7168;BME280;3625;51.762;14.320;2023-04-30T08:25:10;101469.22;;;12.01;64.41
7168;BME280;3625;51.762;14.320;2023-04-30T08:27:39;101462.31;;;11.85;63.95
7168;BME280;3625;51.762;14.320;2023-04-30T08:30:08;101478.47;;;11.59;60.30
7168;BME280;3625;51.762;14.320;2023-04-30T08:32:37;101475.00;;;11.53;61.32
7168;BME280;3625;51.762;14.320;2023-04-30T08:35:07;101471.28;;;11.75;61.55
7168;BME280;3625;51.762;14.320;2023-04-30T08:37:36;101472.53;;;12.19;62.95
7168;BME280;3625;51.762;14.320;2023-04-30T08:40:08;101466.91;;;12.43;59.77
7168;BME280;3625;51.762;14.320;2023-04-30T08:42:43;101459.75;;;12.48;60.79
7168;BME280;3625;51.762;14.320;2023-04-30T08:45:13;101473.75;;;12.61;59.33
7168;BME280;3625;51.762;14.320;2023-04-30T08:47:42;101473.16;;;12.37;57.08
7168;BME280;3625;51.762;14.320;2023-04-30T08:50:12;101472.72;;;12.03;55.58
7168;BME280;3625;51.762;14.320;2023-04-30T08:52:41;101467.38;;;12.05;56.65
7168;BME280;3625;51.762;14.320;2023-04-30T08:55:12;101465.47;;;12.19;57.07
7168;BME280;3625;51.762;14.320;2023-04-30T08:57:41;101459.22;;;12.22;59.67
7168;BME280;3625;51.762;14.320;2023-04-30T09:00:11;101469.16;;;12.06;61.22
7168;BME280;3625;51.762;14.320;2023-04-30T09:02:40;101469.13;;;12.09;59.25
7168;BME280;3625;51.762;14.320;2023-04-30T09:05:12;101476.81;;;12.29;56.04
7168;BME280;3625;51.762;14.320;2023-04-30T09:07:43;101482.16;;;12.27;54.98
7168;BME280;3625;51.762;14.320;2023-04-30T09:10:18;101477.88;;;12.16;57.23
7168;BME280;3625;51.762;14.320;2023-04-30T09:12:58;101477.88;;;12.17;57.38
7168;BME280;3625;51.762;14.320;2023-04-30T09:15:29;101471.38;;;12.38;57.34
7168;BME280;3625;51.762;14.320;2023-04-30T09:18:14;101471.31;;;12.44;56.29
7168;BME280;3625;51.762;14.320;2023-04-30T09:20:55;101475.88;;;12.33;57.01
7168;BME280;3625;51.762;14.320;2023-04-30T09:23:24;101470.56;;;12.34;57.28
7168;BME280;3625;51.762;14.320;2023-04-30T09:25:55;101466.78;;;12.52;55.40
7168;BME280;3625;51.762;14.320;2023-04-30T09:28:24;101474.72;;;12.54;53.87
7168;BME280;3625;51.762;14.320;2023-04-30T09:30:56;101480.19;;;12.43;53.56
7168;BME280;3625;51.762;14.320;2023-04-30T09:33:27;101476.69;;;12.38;54.28
7168;BME280;3625;51.762;14.320;2023-04-30T09:35:56;101480.63;;;12.72;54.00
7168;BME280;3625;51.762;14.320;2023-04-30T09:38:27;101475.13;;;12.86;54.47
7168;BME280;3625;51.762;14.320;2023-04-30T09:40:59;101464.84;;;12.63;56.08
7168;BME280;3625;51.762;14.320;2023-04-30T09:43:29;101477.41;;;12.51;54.52
7168;BME280;3625;51.762;14.320;2023-04-30T09:45:58;101467.84;;;12.37;51.19
7168;BME280;3625;51.762;14.320;2023-04-30T09:48:27;101476.13;;;12.13;51.00
7168;BME280;3625;51.762;14.320;2023-04-30T09:50:56;101471.94;;;11.94;51.94
7168;BME280;3625;51.762;14.320;2023-04-30T09:53:26;101465.78;;;11.92;51.98
7168;BME280;3625;51.762;14.320;2023-04-30T09:56:02;101461.22;;;12.04;52.04
7168;BME280;3625;51.762;14.320;2023-04-30T09:58:36;101467.19;;;12.22;51.44
7168;BME280;3625;51.762;14.320;2023-04-30T10:01:05;101467.97;;;12.30;50.50
7168;BME280;3625;51.762;14.320;2023-04-30T10:03:35;101459.06;;;12.34;51.56
7168;BME280;3625;51.762;14.320;2023-04-30T10:06:06;101452.03;;;12.31;51.45
7168;BME280;3625;51.762;14.320;2023-04-30T10:08:39;101454.75;;;12.27;51.27
7168;BME280;3625;51.762;14.320;2023-04-30T10:11:14;101448.72;;;12.13;50.35
7168;BME280;3625;51.762;14.320;2023-04-30T10:13:50;101445.47;;;11.92;49.32
7168;BME280;3625;51.762;14.320;2023-04-30T10:16:29;101450.50;;;12.12;48.71
7168;BME280;3625;51.762;14.320;2023-04-30T10:19:04;101449.72;;;12.04;50.52
7168;BME280;3625;51.762;14.320;2023-04-30T10:21:35;101447.94;;;12.06;51.25
7168;BME280;3625;51.762;14.320;2023-04-30T10:24:08;101454.91;;;12.13;52.38
7168;BME280;3625;51.762;14.320;2023-04-30T10:26:40;101458.44;;;12.12;51.39
7168;BME280;3625;51.762;14.320;2023-04-30T10:29:10;101448.81;;;12.06;51.56
7168;BME280;3625;51.762;14.320;2023-04-30T10:31:42;101447.03;;;12.08;51.83
7168;BME280;3625;51.762;14.320;2023-04-30T10:34:17;101450.47;;;12.17;51.24
7168;BME280;3625;51.762;14.320;2023-04-30T10:36:55;101445.28;;;12.06;51.43
7168;BME280;3625;51.762;14.320;2023-04-30T10:39:26;101441.84;;;11.99;51.65
7168;BME280;3625;51.762;14.320;2023-04-30T10:42:05;101437.19;;;12.15;50.41
7168;BME280;3625;51.762;14.320;2023-04-30T10:44:38;101439.78;;;12.21;50.90
7168;BME280;3625;51.762;14.320;2023-04-30T10:47:08;101433.53;;;12.27;51.01
7168;BME280;3625;51.762;14.320;2023-04-30T10:49:37;101423.72;;;12.30;50.92
7168;BME280;3625;51.762;14.320;2023-04-30T10:52:10;101420.19;;;12.31;52.15
7168;BME280;3625;51.762;14.320;2023-04-30T10:54:39;101418.31;;;12.38;52.83
7168;BME280;3625;51.762;14.320;2023-04-30T10:57:18;101431.44;;;12.48;49.21
7168;BME280;3625;51.762;14.320;2023-04-30T10:59:52;101435.09;;;12.40;46.93
7168;BME280;3625;51.762;14.320;2023-04-30T11:02:22;101423.69;;;12.35;46.98
7168;BME280;3625;51.762;14.320;2023-04-30T11:05:09;101420.97;;;12.38;48.17
7168;BME280;3625;51.762;14.320;2023-04-30T11:07:46;101424.50;;;12.38;48.56
7168;BME280;3625;51.762;14.320;2023-04-30T11:10:19;101422.56;;;12.51;48.18
7168;BME280;3625;51.762;14.320;2023-04-30T11:12:51;101432.91;;;12.69;46.15
7168;BME280;3625;51.762;14.320;2023-04-30T11:15:23;101442.53;;;12.76;46.14
7168;BME280;3625;51.762;14.320;2023-04-30T11:17:56;101440.94;;;12.63;45.81
7168;BME280;3625;51.762;14.320;2023-04-30T11:20:26;101432.97;;;12.65;46.42
7168;BME280;3625;51.762;14.320;2023-04-30T11:23:08;101434.69;;;12.69;46.93
7168;BME280;3625;51.762;14.320;2023-04-30T11:25:41;101434.44;;;12.82;47.06
7168;BME280;3625;51.762;14.320;2023-04-30T11:28:15;101432.66;;;12.84;47.20
7168;BME280;3625;51.762;14.320;2023-04-30T11:30:52;101434.25;;;12.96;48.04
7168;BME280;3625;51.762;14.320;2023-04-30T11:33:23;101426.00;;;13.13;48.01
7168;BME280;3625;51.762;14.320;2023-04-30T11:35:52;101434.00;;;13.11;47.32
7168;BME280;3625;51.762;14.320;2023-04-30T11:38:25;101426.03;;;13.11;47.29
7168;BME280;3625;51.762;14.320;2023-04-30T11:40:55;101433.09;;;13.12;44.79
7168;BME280;3625;51.762;14.320;2023-04-30T11:43:27;101428.72;;;13.08;45.68
7168;BME280;3625;51.762;14.320;2023-04-30T11:46:02;101424.75;;;13.34;45.13
7168;BME280;3625;51.762;14.320;2023-04-30T11:48:34;101428.28;;;13.34;44.69
7168;BME280;3625;51.762;14.320;2023-04-30T11:51:08;101433.91;;;13.17;43.77
7168;BME280;3625;51.762;14.320;2023-04-30T11:53:41;101427.06;;;13.03;44.46
7168;BME280;3625;51.762;14.320;2023-04-30T11:56:10;101421.78;;;13.00;45.22
7168;BME280;3625;51.762;14.320;2023-04-30T11:58:40;101416.56;;;12.95;45.89
7168;BME280;3625;51.762;14.320;2023-04-30T12:01:09;101433.09;;;13.11;40.99
7168;BME280;3625;51.762;14.320;2023-04-30T12:03:42;101424.50;;;12.97;41.60
7168;BME280;3625;51.762;14.320;2023-04-30T12:06:11;101429.00;;;12.92;41.86
7168;BME280;3625;51.762;14.320;2023-04-30T12:08:50;101411.16;;;13.00;43.14
7168;BME280;3625;51.762;14.320;2023-04-30T12:11:20;101424.03;;;13.24;44.57
7168;BME280;3625;51.762;14.320;2023-04-30T12:13:54;101427.41;;;13.34;44.17
7168;BME280;3625;51.762;14.320;2023-04-30T12:16:24;101431.81;;;13.36;41.79
7168;BME280;3625;51.762;14.320;2023-04-30T12:18:53;101434.34;;;13.42;40.17
7168;BME280;3625;51.762;14.320;2023-04-30T12:21:22;101427.56;;;13.26;39.95
7168;BME280;3625;51.762;14.320;2023-04-30T12:23:51;101423.22;;;13.22;40.35
7168;BME280;3625;51.762;14.320;2023-04-30T12:26:20;101433.84;;;13.22;39.95
7168;BME280;3625;51.762;14.320;2023-04-30T12:28:49;101418.56;;;13.33;40.47
7168;BME280;3625;51.762;14.320;2023-04-30T12:31:20;101419.69;;;13.21;41.08
7168;BME280;3625;51.762;14.320;2023-04-30T12:34:02;101415.25;;;13.22;41.63
7168;BME280;3625;51.762;14.320;2023-04-30T12:36:31;101414.66;;;13.52;37.91
7168;BME280;3625;51.762;14.320;2023-04-30T12:39:06;101425.16;;;13.58;38.14
7168;BME280;3625;51.762;14.320;2023-04-30T12:41:38;101404.91;;;13.53;39.01
7168;BME280;3625;51.762;14.320;2023-04-30T12:44:17;101400.50;;;13.52;38.49
7168;BME280;3625;51.762;14.320;2023-04-30T12:46:48;101398.75;;;13.49;39.49
7168;BME280;3625;51.762;14.320;2023-04-30T12:49:24;101397.75;;;13.56;39.21
7168;BME280;3625;51.762;14.320;2023-04-30T12:51:58;101396.88;;;13.56;38.50
7168;BME280;3625;51.762;14.320;2023-04-30T12:54:28;101394.31;;;13.50;38.59
7168;BME280;3625;51.762;14.320;2023-04-30T12:56:58;101386.28;;;13.53;38.69
7168;BME280;3625;51.762;14.320;2023-04-30T12:59:28;101389.34;;;13.78;38.53
7168;BME280;3625;51.762;14.320;2023-04-30T13:02:07;101385.72;;;13.82;37.97
7168;BME280;3625;51.762;14.320;2023-04-30T13:04:37;101389.19;;;13.84;37.36
7168;BME280;3625;51.762;14.320;2023-04-30T13:07:06;101387.47;;;13.83;37.32
7168;BME280;3625;51.762;14.320;2023-04-30T13:09:36;101391.09;;;13.79;37.21
7168;BME280;3625;51.762;14.320;2023-04-30T13:12:05;101390.16;;;13.81;36.11
7168;BME280;3625;51.762;14.320;2023-04-30T13:14:34;101401.78;;;13.76;35.64
7168;BME280;3625;51.762;14.320;2023-04-30T13:17:03;101386.84;;;13.69;35.85
7168;BME280;3625;51.762;14.320;2023-04-30T13:19:39;101386.22;;;13.57;36.14
7168;BME280;3625;51.762;14.320;2023-04-30T13:22:11;101380.91;;;13.57;35.90